sensor_id;sensor_type;location;lat;lon;timestamp;temperature;humidity
16408;DHT22;8313;49.894;8.084;2022-12-10T00:02:09;3.00;99.90
16408;DHT22;8313;49.894;8.084;2022-12-10T00:04:35;3.00;99.90
16408;DHT22;8313;49.894;8.084;2022-12-10T00:07:01;2.90;99.90
16408;DHT22;8313;49.894;8.084;2022-12-10T00:09:26;2.90;99.90
16408;DHT22;8313;49.894;8.084;2022-12-10T00:11:52;2.90;99.90
16408;DHT22;8313;49.894;8.084;2022-12-10T00:14:18;2.90;99.90
16408;DHT22;8313;49.894;8.084;2022-12-10T00:16:44;2.90;99.90
16408;DHT22;8313;49.894;8.084;2022-12-10T00:19:10;2.90;99.90
16408;DHT22;8313;49.894;8.084;2022-12-10T00:21:36;2.90;99.90
16408;DHT22;8313;49.894;8.084;2022-12-10T00:24:03;3.00;99.90
16408;DHT22;8313;49.894;8.084;2022-12-10T00:26:31;3.00;99.90
16408;DHT22;8313;49.894;8.084;2022-12-10T00:29:00;3.00;99.90
16408;DHT22;8313;49.894;8.084;2022-12-10T00:31:31;3.00;99.90
16408;DHT22;8313;49.894;8.084;2022-12-10T00:34:00;3.00;99.90
16408;DHT22;8313;49.894;8.084;2022-12-10T00:36:29;3.00;99.90
16408;DHT22;8313;49.894;8.084;2022-12-10T00:38:55;3.00;99.90
16408;DHT22;8313;49.894;8.084;2022-12-10T00:41:22;3.00;99.90
16408;DHT22;8313;49.894;8.084;2022-12-10T00:43:48;3.00;99.90
16408;DHT22;8313;49.894;8.084;2022-12-10T00:46:15;3.00;99.90
16408;DHT22;8313;49.894;8.084;2022-12-10T00:48:41;3.00;99.90
16408;DHT22;8313;49.894;8.084;2022-12-10T00:51:11;3.00;99.90
16408;DHT22;8313;49.894;8.084;2022-12-10T00:53:38;2.90;99.90
16408;DHT22;8313;49.894;8.084;2022-12-10T00:56:05;3.00;99.90
16408;DHT22;8313;49.894;8.084;2022-12-10T00:58:33;3.00;99.90
16408;DHT22;8313;49.894;8.084;2022-12-10T01:03:35;3.00;99.90
16408;DHT22;8313;49.894;8.084;2022-12-10T01:06:33;2.90;99.90
16408;DHT22;8313;49.894;8.084;2022-12-10T01:09:03;3.00;99.90
16408;DHT22;8313;49.894;8.084;2022-12-10T01:11:32;3.00;99.90
16408;DHT22;8313;49.894;8.084;2022-12-10T01:13:59;3.10;99.90
16408;DHT22;8313;49.894;8.084;2022-12-10T01:16:25;3.10;99.90
16408;DHT22;8313;49.894;8.084;2022-12-10T01:18:56;3.10;99.90
16408;DHT22;8313;49.894;8.084;2022-12-10T01:21:23;3.00;99.90
16408;DHT22;8313;49.894;8.084;2022-12-10T01:23:50;3.00;99.90
16408;DHT22;8313;49.894;8.084;2022-12-10T01:26:21;2.90;99.90
16408;DHT22;8313;49.894;8.084;2022-12-10T01:28:48;2.90;99.90
16408;DHT22;8313;49.894;8.084;2022-12-10T01:31:16;2.70;99.90
16408;DHT22;8313;49.894;8.084;2022-12-10T01:33:42;2.70;99.90
16408;DHT22;8313;49.894;8.084;2022-12-10T01:36:16;2.80;99.90
16408;DHT22;8313;49.894;8.084;2022-12-10T01:38:42;2.80;99.90
16408;DHT22;8313;49.894;8.084;2022-12-10T01:41:17;2.70;99.90
16408;DHT22;8313;49.894;8.084;2022-12-10T01:43:57;2.80;99.90
16408;DHT22;8313;49.894;8.084;2022-12-10T01:46:26;2.90;99.90
16408;DHT22;8313;49.894;8.084;2022-12-10T01:48:52;2.80;99.90
16408;DHT22;8313;49.894;8.084;2022-12-10T01:51:18;2.80;99.90
16408;DHT22;8313;49.894;8.084;2022-12-10T01:53:45;2.90;99.90
16408;DHT22;8313;49.894;8.084;2022-12-10T01:56:12;2.90;99.90
16408;DHT22;8313;49.894;8.084;2022-12-10T01:58:38;2.90;99.90
16408;DHT22;8313;49.894;8.084;2022-12-10T02:01:11;2.90;99.90
16408;DHT22;8313;49.894;8.084;2022-12-10T02:04:03;2.90;99.90
16408;DHT22;8313;49.894;8.084;2022-12-10T02:06:45;2.90;99.90
16408;DHT22;8313;49.894;8.084;2022-12-10T02:09:19;2.90;99.90
16408;DHT22;8313;49.894;8.084;2022-12-10T02:14:41;3.00;99.90
16408;DHT22;8313;49.894;8.084;2022-12-10T02:17:25;3.00;99.90
16408;DHT22;8313;49.894;8.084;2022-12-10T02:23:10;2.90;99.90
16408;DHT22;8313;49.894;8.084;2022-12-10T02:31:25;3.00;99.90
16408;DHT22;8313;49.894;8.084;2022-12-10T02:33:56;3.00;99.90
16408;DHT22;8313;49.894;8.084;2022-12-10T02:36:25;2.90;99.90
16408;DHT22;8313;49.894;8.084;2022-12-10T02:38:52;2.90;99.90
16408;DHT22;8313;49.894;8.084;2022-12-10T02:41:30;2.90;99.90
16408;DHT22;8313;49.894;8.084;2022-12-10T02:44:00;3.00;99.90
16408;DHT22;8313;49.894;8.084;2022-12-10T02:46:28;3.00;99.90
16408;DHT22;8313;49.894;8.084;2022-12-10T02:48:57;3.00;99.90
16408;DHT22;8313;49.894;8.084;2022-12-10T02:51:23;2.90;99.90
16408;DHT22;8313;49.894;8.084;2022-12-10T02:53:59;2.90;99.90
16408;DHT22;8313;49.894;8.084;2022-12-10T02:56:45;2.90;99.90
16408;DHT22;8313;49.894;8.084;2022-12-10T03:04:57;2.90;99.90
16408;DHT22;8313;49.894;8.084;2022-12-10T03:07:35;2.90;99.90
16408;DHT22;8313;49.894;8.084;2022-12-10T03:12:52;2.90;99.90
16408;DHT22;8313;49.894;8.084;2022-12-10T03:15:21;2.90;99.90
16408;DHT22;8313;49.894;8.084;2022-12-10T03:17:48;2.90;99.90
16408;DHT22;8313;49.894;8.084;2022-12-10T03:20:15;2.90;99.90
16408;DHT22;8313;49.894;8.084;2022-12-10T03:22:44;2.90;99.90
16408;DHT22;8313;49.894;8.084;2022-12-10T03:25:15;2.80;99.90
16408;DHT22;8313;49.894;8.084;2022-12-10T03:27:43;2.80;99.90
16408;DHT22;8313;49.894;8.084;2022-12-10T03:30:11;2.80;99.90
16408;DHT22;8313;49.894;8.084;2022-12-10T03:32:37;2.90;99.90
16408;DHT22;8313;49.894;8.084;2022-12-10T03:35:04;2.80;99.90
16408;DHT22;8313;49.894;8.084;2022-12-10T03:37:30;2.90;99.90
16408;DHT22;8313;49.894;8.084;2022-12-10T03:39:57;2.80;99.90
16408;DHT22;8313;49.894;8.084;2022-12-10T03:42:23;2.80;99.90
16408;DHT22;8313;49.894;8.084;2022-12-10T03:44:50;2.70;99.90
16408;DHT22;8313;49.894;8.084;2022-12-10T03:47:17;2.70;99.90
16408;DHT22;8313;49.894;8.084;2022-12-10T03:49:43;2.60;99.90
16408;DHT22;8313;49.894;8.084;2022-12-10T03:52:10;2.60;99.90
16408;DHT22;8313;49.894;8.084;2022-12-10T03:54:36;2.70;99.90
16408;DHT22;8313;49.894;8.084;2022-12-10T03:57:02;2.70;99.90
16408;DHT22;8313;49.894;8.084;2022-12-10T03:59:28;2.70;99.90
16408;DHT22;8313;49.894;8.084;2022-12-10T04:01:57;2.60;99.90
16408;DHT22;8313;49.894;8.084;2022-12-10T04:04:22;2.50;99.90
16408;DHT22;8313;49.894;8.084;2022-12-10T04:06:48;2.50;99.90
16408;DHT22;8313;49.894;8.084;2022-12-10T04:09:15;2.60;99.90
16408;DHT22;8313;49.894;8.084;2022-12-10T04:11:41;2.60;99.90
16408;DHT22;8313;49.894;8.084;2022-12-10T04:14:09;2.50;99.90
16408;DHT22;8313;49.894;8.084;2022-12-10T04:16:53;2.50;99.90
16408;DHT22;8313;49.894;8.084;2022-12-10T04:19:19;2.40;99.90
16408;DHT22;8313;49.894;8.084;2022-12-10T04:21:45;2.30;99.90
16408;DHT22;8313;49.894;8.084;2022-12-10T04:24:32;2.40;99.90
16408;DHT22;8313;49.894;8.084;2022-12-10T04:29:44;2.50;99.90
16408;DHT22;8313;49.894;8.084;2022-12-10T04:32:10;2.50;99.90
16408;DHT22;8313;49.894;8.084;2022-12-10T04:34:36;2.60;99.90
16408;DHT22;8313;49.894;8.084;2022-12-10T04:37:03;2.60;99.90
16408;DHT22;8313;49.894;8.084;2022-12-10T04:39:29;2.60;99.90
16408;DHT22;8313;49.894;8.084;2022-12-10T04:41:55;2.50;99.90
16408;DHT22;8313;49.894;8.084;2022-12-10T04:44:20;2.50;99.90
16408;DHT22;8313;49.894;8.084;2022-12-10T04:46:48;2.50;99.90
16408;DHT22;8313;49.894;8.084;2022-12-10T04:49:14;2.60;99.90
16408;DHT22;8313;49.894;8.084;2022-12-10T04:51:40;2.60;99.90
16408;DHT22;8313;49.894;8.084;2022-12-10T04:54:06;2.60;99.90
16408;DHT22;8313;49.894;8.084;2022-12-10T04:56:33;2.60;99.90
16408;DHT22;8313;49.894;8.084;2022-12-10T04:59:00;2.60;99.90
16408;DHT22;8313;49.894;8.084;2022-12-10T05:01:26;2.50;99.90
16408;DHT22;8313;49.894;8.084;2022-12-10T05:03:52;2.50;99.90
16408;DHT22;8313;49.894;8.084;2022-12-10T05:06:19;2.50;99.90
16408;DHT22;8313;49.894;8.084;2022-12-10T05:08:46;2.50;99.90
16408;DHT22;8313;49.894;8.084;2022-12-10T05:11:15;2.60;99.90
16408;DHT22;8313;49.894;8.084;2022-12-10T05:13:41;2.60;99.90
16408;DHT22;8313;49.894;8.084;2022-12-10T05:16:09;2.50;99.90
16408;DHT22;8313;49.894;8.084;2022-12-10T05:18:35;2.60;99.90
16408;DHT22;8313;49.894;8.084;2022-12-10T05:21:02;2.50;99.90
16408;DHT22;8313;49.894;8.084;2022-12-10T05:23:28;2.50;99.90
16408;DHT22;8313;49.894;8.084;2022-12-10T05:26:06;2.40;99.90
16408;DHT22;8313;49.894;8.084;2022-12-10T05:28:35;2.40;99.90
16408;DHT22;8313;49.894;8.084;2022-12-10T05:31:01;2.30;99.90
16408;DHT22;8313;49.894;8.084;2022-12-10T05:33:27;2.30;99.90
16408;DHT22;8313;49.894;8.084;2022-12-10T05:38:19;2.30;99.90
16408;DHT22;8313;49.894;8.084;2022-12-10T05:40:44;2.40;99.90
16408;DHT22;8313;49.894;8.084;2022-12-10T05:43:10;2.40;99.90
16408;DHT22;8313;49.894;8.084;2022-12-10T05:45:36;2.40;99.90
16408;DHT22;8313;49.894;8.084;2022-12-10T05:48:01;2.40;99.90
16408;DHT22;8313;49.894;8.084;2022-12-10T05:50:27;2.40;99.90
16408;DHT22;8313;49.894;8.084;2022-12-10T05:52:53;2.30;99.90
16408;DHT22;8313;49.894;8.084;2022-12-10T05:55:19;2.40;99.90
16408;DHT22;8313;49.894;8.084;2022-12-10T05:57:45;2.30;99.90
16408;DHT22;8313;49.894;8.084;2022-12-10T06:00:11;2.30;99.90
16408;DHT22;8313;49.894;8.084;2022-12-10T06:02:40;2.30;99.90
16408;DHT22;8313;49.894;8.084;2022-12-10T06:05:06;2.30;99.90
16408;DHT22;8313;49.894;8.084;2022-12-10T06:07:31;2.30;99.90
16408;DHT22;8313;49.894;8.084;2022-12-10T06:09:57;2.40;99.90
16408;DHT22;8313;49.894;8.084;2022-12-10T06:12:23;2.40;99.90
16408;DHT22;8313;49.894;8.084;2022-12-10T06:14:48;2.40;99.90
16408;DHT22;8313;49.894;8.084;2022-12-10T06:17:14;2.40;99.90
16408;DHT22;8313;49.894;8.084;2022-12-10T06:19:40;2.40;99.90
16408;DHT22;8313;49.894;8.084;2022-12-10T06:22:05;2.40;99.90
16408;DHT22;8313;49.894;8.084;2022-12-10T06:24:32;2.40;99.90
16408;DHT22;8313;49.894;8.084;2022-12-10T06:26:57;2.40;99.90
16408;DHT22;8313;49.894;8.084;2022-12-10T06:29:23;2.40;99.90
16408;DHT22;8313;49.894;8.084;2022-12-10T06:31:49;2.40;99.90
16408;DHT22;8313;49.894;8.084;2022-12-10T06:34:14;2.30;99.90
16408;DHT22;8313;49.894;8.084;2022-12-10T06:36:40;2.30;99.90
16408;DHT22;8313;49.894;8.084;2022-12-10T06:39:05;2.30;99.90
16408;DHT22;8313;49.894;8.084;2022-12-10T06:41:31;2.30;99.90
16408;DHT22;8313;49.894;8.084;2022-12-10T06:43:57;2.30;99.90
16408;DHT22;8313;49.894;8.084;2022-12-10T06:46:26;2.20;99.90
16408;DHT22;8313;49.894;8.084;2022-12-10T06:48:53;2.30;99.90
16408;DHT22;8313;49.894;8.084;2022-12-10T06:51:18;2.30;99.90
16408;DHT22;8313;49.894;8.084;2022-12-10T06:53:45;2.30;99.90
16408;DHT22;8313;49.894;8.084;2022-12-10T06:56:16;2.30;99.90
16408;DHT22;8313;49.894;8.084;2022-12-10T06:58:43;2.30;99.90
16408;DHT22;8313;49.894;8.084;2022-12-10T07:01:10;2.30;99.90
16408;DHT22;8313;49.894;8.084;2022-12-10T07:03:37;2.20;99.90
16408;DHT22;8313;49.894;8.084;2022-12-10T07:06:04;2.20;99.90
16408;DHT22;8313;49.894;8.084;2022-12-10T07:08:30;2.20;99.90
16408;DHT22;8313;49.894;8.084;2022-12-10T07:10:56;2.20;99.90
16408;DHT22;8313;49.894;8.084;2022-12-10T07:13:23;2.20;99.90
16408;DHT22;8313;49.894;8.084;2022-12-10T07:15:48;2.20;99.90
16408;DHT22;8313;49.894;8.084;2022-12-10T07:18:14;2.20;99.90
16408;DHT22;8313;49.894;8.084;2022-12-10T07:20:40;2.20;99.90
16408;DHT22;8313;49.894;8.084;2022-12-10T07:23:06;2.20;99.90
16408;DHT22;8313;49.894;8.084;2022-12-10T07:25:32;2.20;99.90
16408;DHT22;8313;49.894;8.084;2022-12-10T07:27:58;2.20;99.90
16408;DHT22;8313;49.894;8.084;2022-12-10T07:30:24;2.20;99.90
16408;DHT22;8313;49.894;8.084;2022-12-10T07:32:50;2.20;99.90
16408;DHT22;8313;49.894;8.084;2022-12-10T07:35:15;2.20;99.90
16408;DHT22;8313;49.894;8.084;2022-12-10T07:37:41;2.20;99.90
16408;DHT22;8313;49.894;8.084;2022-12-10T07:40:07;2.20;99.90
16408;DHT22;8313;49.894;8.084;2022-12-10T07:42:33;2.20;99.90
16408;DHT22;8313;49.894;8.084;2022-12-10T07:44:58;2.20;99.90
16408;DHT22;8313;49.894;8.084;2022-12-10T07:47:24;2.10;99.90
16408;DHT22;8313;49.894;8.084;2022-12-10T07:49:50;2.00;99.90
16408;DHT22;8313;49.894;8.084;2022-12-10T07:52:16;2.00;99.90
16408;DHT22;8313;49.894;8.084;2022-12-10T07:54:42;2.00;99.90
16408;DHT22;8313;49.894;8.084;2022-12-10T07:57:07;2.10;99.90
16408;DHT22;8313;49.894;8.084;2022-12-10T07:59:33;2.10;99.90
16408;DHT22;8313;49.894;8.084;2022-12-10T08:01:59;2.10;99.90
16408;DHT22;8313;49.894;8.084;2022-12-10T08:04:28;2.10;99.90
16408;DHT22;8313;49.894;8.084;2022-12-10T08:06:55;2.00;99.90
16408;DHT22;8313;49.894;8.084;2022-12-10T08:09:21;2.00;99.90
16408;DHT22;8313;49.894;8.084;2022-12-10T08:11:46;2.00;99.90
16408;DHT22;8313;49.894;8.084;2022-12-10T08:14:12;2.00;99.90
16408;DHT22;8313;49.894;8.084;2022-12-10T08:16:38;2.00;99.90
16408;DHT22;8313;49.894;8.084;2022-12-10T08:19:04;2.10;99.90
16408;DHT22;8313;49.894;8.084;2022-12-10T08:21:31;2.10;99.90
16408;DHT22;8313;49.894;8.084;2022-12-10T08:23:57;2.10;99.90
16408;DHT22;8313;49.894;8.084;2022-12-10T08:26:26;2.10;99.90
16408;DHT22;8313;49.894;8.084;2022-12-10T08:28:53;2.00;99.90
16408;DHT22;8313;49.894;8.084;2022-12-10T08:31:21;2.00;99.90
16408;DHT22;8313;49.894;8.084;2022-12-10T08:33:48;2.00;99.90
16408;DHT22;8313;49.894;8.084;2022-12-10T08:36:15;2.00;99.90
16408;DHT22;8313;49.894;8.084;2022-12-10T08:38:42;1.90;99.90
16408;DHT22;8313;49.894;8.084;2022-12-10T08:41:10;1.90;99.90
16408;DHT22;8313;49.894;8.084;2022-12-10T08:43:36;1.90;99.90
16408;DHT22;8313;49.894;8.084;2022-12-10T08:46:02;1.90;99.90
16408;DHT22;8313;49.894;8.084;2022-12-10T08:48:28;1.90;99.90
16408;DHT22;8313;49.894;8.084;2022-12-10T08:50:54;1.90;99.90
16408;DHT22;8313;49.894;8.084;2022-12-10T08:53:21;1.90;99.90
16408;DHT22;8313;49.894;8.084;2022-12-10T08:55:50;1.90;99.90
16408;DHT22;8313;49.894;8.084;2022-12-10T08:58:16;1.90;99.90
16408;DHT22;8313;49.894;8.084;2022-12-10T09:00:42;1.90;99.90
16408;DHT22;8313;49.894;8.084;2022-12-10T09:03:08;1.90;99.90
16408;DHT22;8313;49.894;8.084;2022-12-10T09:05:35;1.90;99.90
16408;DHT22;8313;49.894;8.084;2022-12-10T09:08:01;1.90;99.90
16408;DHT22;8313;49.894;8.084;2022-12-10T09:10:26;2.00;99.90
16408;DHT22;8313;49.894;8.084;2022-12-10T09:12:52;2.00;99.90
16408;DHT22;8313;49.894;8.084;2022-12-10T09:15:18;2.00;99.90
16408;DHT22;8313;49.894;8.084;2022-12-10T09:17:44;2.00;99.90
16408;DHT22;8313;49.894;8.084;2022-12-10T09:20:09;2.10;99.90
16408;DHT22;8313;49.894;8.084;2022-12-10T09:22:36;2.00;99.90
16408;DHT22;8313;49.894;8.084;2022-12-10T09:25:07;2.10;99.90
16408;DHT22;8313;49.894;8.084;2022-12-10T09:27:33;2.10;99.90
16408;DHT22;8313;49.894;8.084;2022-12-10T09:29:58;2.20;99.90
16408;DHT22;8313;49.894;8.084;2022-12-10T09:32:24;2.20;99.90
16408;DHT22;8313;49.894;8.084;2022-12-10T09:34:53;2.10;99.90
16408;DHT22;8313;49.894;8.084;2022-12-10T09:37:19;2.10;99.90
16408;DHT22;8313;49.894;8.084;2022-12-10T09:39:45;2.10;99.90
16408;DHT22;8313;49.894;8.084;2022-12-10T09:47:40;2.10;99.90
16408;DHT22;8313;49.894;8.084;2022-12-10T09:50:30;2.00;99.90
16408;DHT22;8313;49.894;8.084;2022-12-10T09:52:58;2.10;99.90
16408;DHT22;8313;49.894;8.084;2022-12-10T09:55:37;2.10;99.90
16408;DHT22;8313;49.894;8.084;2022-12-10T09:58:05;2.10;99.90
16408;DHT22;8313;49.894;8.084;2022-12-10T10:00:39;2.10;99.90
16408;DHT22;8313;49.894;8.084;2022-12-10T10:03:09;2.10;99.90
16408;DHT22;8313;49.894;8.084;2022-12-10T10:05:41;2.10;99.90
16408;DHT22;8313;49.894;8.084;2022-12-10T10:10:40;2.20;99.90
16408;DHT22;8313;49.894;8.084;2022-12-10T10:15:36;2.20;99.90
16408;DHT22;8313;49.894;8.084;2022-12-10T10:18:26;2.20;99.90
16408;DHT22;8313;49.894;8.084;2022-12-10T10:20:55;2.30;99.90
16408;DHT22;8313;49.894;8.084;2022-12-10T10:23:21;2.30;99.90
16408;DHT22;8313;49.894;8.084;2022-12-10T10:25:47;2.30;99.90
16408;DHT22;8313;49.894;8.084;2022-12-10T10:28:18;2.30;99.90
16408;DHT22;8313;49.894;8.084;2022-12-10T10:30:44;2.30;99.90
16408;DHT22;8313;49.894;8.084;2022-12-10T10:33:12;2.30;99.90
16408;DHT22;8313;49.894;8.084;2022-12-10T10:36:16;2.40;99.90
16408;DHT22;8313;49.894;8.084;2022-12-10T10:38:34;2.40;99.90
16408;DHT22;8313;49.894;8.084;2022-12-10T10:41:02;2.40;99.90
16408;DHT22;8313;49.894;8.084;2022-12-10T10:46:17;2.50;99.90
16408;DHT22;8313;49.894;8.084;2022-12-10T10:48:46;2.40;99.90
16408;DHT22;8313;49.894;8.084;2022-12-10T10:58:56;2.40;99.90
16408;DHT22;8313;49.894;8.084;2022-12-10T11:01:24;2.40;99.90
16408;DHT22;8313;49.894;8.084;2022-12-10T11:03:57;2.40;99.90
16408;DHT22;8313;49.894;8.084;2022-12-10T11:06:31;2.40;99.90
16408;DHT22;8313;49.894;8.084;2022-12-10T11:08:58;2.40;99.90
16408;DHT22;8313;49.894;8.084;2022-12-10T11:11:39;2.40;99.90
16408;DHT22;8313;49.894;8.084;2022-12-10T11:14:15;2.40;99.90
16408;DHT22;8313;49.894;8.084;2022-12-10T11:16:41;2.50;99.90
16408;DHT22;8313;49.894;8.084;2022-12-10T11:19:18;2.40;99.90
16408;DHT22;8313;49.894;8.084;2022-12-10T11:21:44;2.40;99.90
16408;DHT22;8313;49.894;8.084;2022-12-10T11:24:11;2.40;99.90
16408;DHT22;8313;49.894;8.084;2022-12-10T11:27:10;2.40;99.90
16408;DHT22;8313;49.894;8.084;2022-12-10T11:30:02;2.40;99.90
16408;DHT22;8313;49.894;8.084;2022-12-10T11:35:13;2.40;99.90
16408;DHT22;8313;49.894;8.084;2022-12-10T11:37:52;2.40;99.90
16408;DHT22;8313;49.894;8.084;2022-12-10T11:46:31;2.50;99.90
16408;DHT22;8313;49.894;8.084;2022-12-10T11:56:52;2.60;99.90
16408;DHT22;8313;49.894;8.084;2022-12-10T11:59:56;2.60;99.90
16408;DHT22;8313;49.894;8.084;2022-12-10T12:05:19;2.50;99.90
16408;DHT22;8313;49.894;8.084;2022-12-10T12:07:55;2.60;99.90
16408;DHT22;8313;49.894;8.084;2022-12-10T12:13:22;2.80;99.90
16408;DHT22;8313;49.894;8.084;2022-12-10T12:16:17;2.90;99.90
16408;DHT22;8313;49.894;8.084;2022-12-10T12:18:59;3.00;99.90
16408;DHT22;8313;49.894;8.084;2022-12-10T12:21:26;2.90;99.90
16408;DHT22;8313;49.894;8.084;2022-12-10T12:24:02;3.00;99.90
16408;DHT22;8313;49.894;8.084;2022-12-10T12:26:36;3.10;99.90
16408;DHT22;8313;49.894;8.084;2022-12-10T12:32:04;3.10;99.90
16408;DHT22;8313;49.894;8.084;2022-12-10T12:35:10;3.10;99.90
16408;DHT22;8313;49.894;8.084;2022-12-10T12:37:46;3.00;99.90
16408;DHT22;8313;49.894;8.084;2022-12-10T12:42:53;3.00;99.90
16408;DHT22;8313;49.894;8.084;2022-12-10T12:53:21;3.00;99.90
16408;DHT22;8313;49.894;8.084;2022-12-10T12:58:30;3.20;99.90
16408;DHT22;8313;49.894;8.084;2022-12-10T13:01:06;3.20;99.90
16408;DHT22;8313;49.894;8.084;2022-12-10T13:03:40;3.20;99.90
16408;DHT22;8313;49.894;8.084;2022-12-10T13:06:24;3.10;99.90
16408;DHT22;8313;49.894;8.084;2022-12-10T13:09:51;3.20;99.90
16408;DHT22;8313;49.894;8.084;2022-12-10T13:12:17;3.20;99.90
16408;DHT22;8313;49.894;8.084;2022-12-10T13:18:02;3.20;99.90
16408;DHT22;8313;49.894;8.084;2022-12-10T13:20:34;3.10;99.90
16408;DHT22;8313;49.894;8.084;2022-12-10T13:23:03;3.10;99.90
16408;DHT22;8313;49.894;8.084;2022-12-10T13:31:17;3.30;99.90
16408;DHT22;8313;49.894;8.084;2022-12-10T13:50:32;3.40;99.90
16408;DHT22;8313;49.894;8.084;2022-12-10T13:53:19;3.30;99.90
16408;DHT22;8313;49.894;8.084;2022-12-10T13:56:04;3.30;99.90
16408;DHT22;8313;49.894;8.084;2022-12-10T14:07:13;3.00;99.90
16408;DHT22;8313;49.894;8.084;2022-12-10T14:09:50;3.10;99.90
16408;DHT22;8313;49.894;8.084;2022-12-10T14:12:33;3.00;99.90
16408;DHT22;8313;49.894;8.084;2022-12-10T14:15:07;2.90;99.90
16408;DHT22;8313;49.894;8.084;2022-12-10T14:17:38;2.90;99.90
16408;DHT22;8313;49.894;8.084;2022-12-10T14:20:06;3.00;99.90
16408;DHT22;8313;49.894;8.084;2022-12-10T14:22:46;2.90;99.90
16408;DHT22;8313;49.894;8.084;2022-12-10T14:25:18;2.90;99.90
16408;DHT22;8313;49.894;8.084;2022-12-10T14:27:48;2.80;99.90
16408;DHT22;8313;49.894;8.084;2022-12-10T14:32:40;2.90;99.90
16408;DHT22;8313;49.894;8.084;2022-12-10T14:35:26;2.90;99.90
16408;DHT22;8313;49.894;8.084;2022-12-10T14:37:55;2.90;99.90
16408;DHT22;8313;49.894;8.084;2022-12-10T14:40:27;2.90;99.90
16408;DHT22;8313;49.894;8.084;2022-12-10T14:43:09;2.80;99.90
16408;DHT22;8313;49.894;8.084;2022-12-10T14:45:59;2.70;99.90
16408;DHT22;8313;49.894;8.084;2022-12-10T14:48:26;2.80;99.90
16408;DHT22;8313;49.894;8.084;2022-12-10T14:50:53;2.70;99.90
16408;DHT22;8313;49.894;8.084;2022-12-10T14:53:28;2.70;99.90
16408;DHT22;8313;49.894;8.084;2022-12-10T14:55:57;2.60;99.90
16408;DHT22;8313;49.894;8.084;2022-12-10T15:00:50;2.70;99.90
16408;DHT22;8313;49.894;8.084;2022-12-10T15:03:26;2.60;99.90
16408;DHT22;8313;49.894;8.084;2022-12-10T15:05:58;2.60;99.90
16408;DHT22;8313;49.894;8.084;2022-12-10T15:08:25;2.60;99.90
16408;DHT22;8313;49.894;8.084;2022-12-10T15:10:55;2.50;99.90
16408;DHT22;8313;49.894;8.084;2022-12-10T15:13:39;2.50;99.90
16408;DHT22;8313;49.894;8.084;2022-12-10T15:16:06;2.50;99.90
16408;DHT22;8313;49.894;8.084;2022-12-10T15:18:39;2.40;99.90
16408;DHT22;8313;49.894;8.084;2022-12-10T15:21:21;2.30;99.90
16408;DHT22;8313;49.894;8.084;2022-12-10T15:23:47;2.30;99.90
16408;DHT22;8313;49.894;8.084;2022-12-10T15:26:22;2.30;99.90
16408;DHT22;8313;49.894;8.084;2022-12-10T15:28:52;2.30;99.90
16408;DHT22;8313;49.894;8.084;2022-12-10T15:31:38;2.20;99.90
16408;DHT22;8313;49.894;8.084;2022-12-10T15:34:10;2.10;99.90
16408;DHT22;8313;49.894;8.084;2022-12-10T15:36:51;2.10;99.90
16408;DHT22;8313;49.894;8.084;2022-12-10T15:39:48;2.10;99.90
16408;DHT22;8313;49.894;8.084;2022-12-10T15:42:31;2.10;99.90
16408;DHT22;8313;49.894;8.084;2022-12-10T15:47:40;2.10;99.90
16408;DHT22;8313;49.894;8.084;2022-12-10T15:50:06;2.10;99.90
16408;DHT22;8313;49.894;8.084;2022-12-10T15:52:33;2.10;99.90
16408;DHT22;8313;49.894;8.084;2022-12-10T15:55:00;2.10;99.90
16408;DHT22;8313;49.894;8.084;2022-12-10T15:59:55;2.20;99.90
16408;DHT22;8313;49.894;8.084;2022-12-10T16:04:46;2.10;99.90
16408;DHT22;8313;49.894;8.084;2022-12-10T16:07:12;2.00;99.90
16408;DHT22;8313;49.894;8.084;2022-12-10T16:09:41;2.00;99.90
16408;DHT22;8313;49.894;8.084;2022-12-10T16:12:12;2.00;99.90
16408;DHT22;8313;49.894;8.084;2022-12-10T16:14:46;2.00;99.90
16408;DHT22;8313;49.894;8.084;2022-12-10T16:17:13;2.00;99.90
16408;DHT22;8313;49.894;8.084;2022-12-10T16:19:39;1.90;99.90
16408;DHT22;8313;49.894;8.084;2022-12-10T16:22:05;1.80;99.90
16408;DHT22;8313;49.894;8.084;2022-12-10T16:24:31;1.90;99.90
16408;DHT22;8313;49.894;8.084;2022-12-10T16:26:56;2.00;99.90
16408;DHT22;8313;49.894;8.084;2022-12-10T16:29:22;2.00;99.90
16408;DHT22;8313;49.894;8.084;2022-12-10T16:31:49;1.90;99.90
16408;DHT22;8313;49.894;8.084;2022-12-10T16:34:15;1.80;99.90
16408;DHT22;8313;49.894;8.084;2022-12-10T16:36:40;1.80;99.90
16408;DHT22;8313;49.894;8.084;2022-12-10T16:39:06;1.70;99.90
16408;DHT22;8313;49.894;8.084;2022-12-10T16:41:32;1.70;99.90
16408;DHT22;8313;49.894;8.084;2022-12-10T16:43:58;1.70;99.90
16408;DHT22;8313;49.894;8.084;2022-12-10T16:46:24;1.80;99.90
16408;DHT22;8313;49.894;8.084;2022-12-10T16:48:50;1.80;99.90
16408;DHT22;8313;49.894;8.084;2022-12-10T16:51:26;1.90;99.90
16408;DHT22;8313;49.894;8.084;2022-12-10T16:53:55;2.00;99.90
16408;DHT22;8313;49.894;8.084;2022-12-10T16:56:21;2.00;99.90
16408;DHT22;8313;49.894;8.084;2022-12-10T16:58:47;2.10;99.90
16408;DHT22;8313;49.894;8.084;2022-12-10T17:01:22;2.10;99.90
16408;DHT22;8313;49.894;8.084;2022-12-10T17:03:49;2.10;99.90
16408;DHT22;8313;49.894;8.084;2022-12-10T17:06:16;2.10;99.90
16408;DHT22;8313;49.894;8.084;2022-12-10T17:08:42;2.00;99.90
16408;DHT22;8313;49.894;8.084;2022-12-10T17:13:59;2.00;99.90
16408;DHT22;8313;49.894;8.084;2022-12-10T17:16:25;2.10;99.90
16408;DHT22;8313;49.894;8.084;2022-12-10T17:18:51;2.10;99.90
16408;DHT22;8313;49.894;8.084;2022-12-10T17:21:16;2.10;99.90
16408;DHT22;8313;49.894;8.084;2022-12-10T17:23:42;2.00;99.90
16408;DHT22;8313;49.894;8.084;2022-12-10T17:26:27;2.00;99.90
16408;DHT22;8313;49.894;8.084;2022-12-10T17:28:56;1.90;99.90
16408;DHT22;8313;49.894;8.084;2022-12-10T17:31:24;2.00;99.90
16408;DHT22;8313;49.894;8.084;2022-12-10T17:33:49;2.00;99.90
16408;DHT22;8313;49.894;8.084;2022-12-10T17:36:15;2.00;99.90
16408;DHT22;8313;49.894;8.084;2022-12-10T17:38:42;2.10;99.90
16408;DHT22;8313;49.894;8.084;2022-12-10T17:41:10;2.10;99.90
16408;DHT22;8313;49.894;8.084;2022-12-10T17:43:36;2.10;99.90
16408;DHT22;8313;49.894;8.084;2022-12-10T17:46:02;2.20;99.90
16408;DHT22;8313;49.894;8.084;2022-12-10T17:48:28;2.10;99.90
16408;DHT22;8313;49.894;8.084;2022-12-10T17:50:54;2.20;99.90
16408;DHT22;8313;49.894;8.084;2022-12-10T17:53:20;2.10;99.90
16408;DHT22;8313;49.894;8.084;2022-12-10T17:55:51;2.10;99.90
16408;DHT22;8313;49.894;8.084;2022-12-10T17:58:19;2.10;99.90
16408;DHT22;8313;49.894;8.084;2022-12-10T18:00:46;2.10;99.90
16408;DHT22;8313;49.894;8.084;2022-12-10T18:03:11;2.10;99.90
16408;DHT22;8313;49.894;8.084;2022-12-10T18:05:38;2.10;99.90
16408;DHT22;8313;49.894;8.084;2022-12-10T18:08:04;2.10;99.90
16408;DHT22;8313;49.894;8.084;2022-12-10T18:10:31;2.10;99.90
16408;DHT22;8313;49.894;8.084;2022-12-10T18:12:58;2.10;99.90
16408;DHT22;8313;49.894;8.084;2022-12-10T18:15:26;2.10;99.90
16408;DHT22;8313;49.894;8.084;2022-12-10T18:17:52;2.10;99.90
16408;DHT22;8313;49.894;8.084;2022-12-10T18:20:22;2.10;99.90
16408;DHT22;8313;49.894;8.084;2022-12-10T18:22:49;2.00;99.90
16408;DHT22;8313;49.894;8.084;2022-12-10T18:25:15;2.00;99.90
16408;DHT22;8313;49.894;8.084;2022-12-10T18:27:40;2.00;99.90
16408;DHT22;8313;49.894;8.084;2022-12-10T18:30:06;2.00;99.90
16408;DHT22;8313;49.894;8.084;2022-12-10T18:32:33;2.00;99.90
16408;DHT22;8313;49.894;8.084;2022-12-10T18:34:59;2.00;99.90